TimeEST,TemperatureF,Dew PointF,Humidity,Sea Level PressureIn,VisibilityMPH,Wind Direction,Wind SpeedMPH,Gust SpeedMPH,PrecipitationIn,Events,Conditions,WindDirDegrees,DateUTC
12:15 AM,51.8,50.0,94,30.13,10.0,North,4.6,-,N/A,,Clear,350,2012-11-20 05:15:00
12:55 AM,51.8,48.2,88,30.13,10.0,NNW,5.8,-,N/A,,Clear,340,2012-11-20 05:55:00
1:15 AM,51.8,46.4,82,30.13,10.0,North,3.5,-,N/A,,Clear,350,2012-11-20 06:15:00
1:35 AM,51.8,46.4,82,30.12,10.0,North,4.6,-,N/A,,Clear,350,2012-11-20 06:35:00
1:55 AM,50.0,46.4,87,30.12,10.0,North,4.6,-,N/A,,Clear,360,2012-11-20 06:55:00
2:15 AM,51.8,46.4,82,30.11,10.0,North,5.8,-,N/A,,Clear,360,2012-11-20 07:15:00
2:35 AM,50.0,46.4,87,30.11,10.0,NNW,5.8,-,N/A,,Clear,340,2012-11-20 07:35:00
2:55 AM,50.0,44.6,82,30.11,10.0,NNW,5.8,-,N/A,,Clear,330,2012-11-20 07:55:00
3:15 AM,50.0,44.6,82,30.12,10.0,NNW,5.8,-,N/A,,Clear,340,2012-11-20 08:15:00
3:35 AM,48.2,44.6,87,30.11,10.0,NNW,6.9,-,N/A,,Clear,340,2012-11-20 08:35:00
6:55 AM,44.6,42.8,93,30.14,10.0,NNW,3.5,-,N/A,,Clear,330,2012-11-20 11:55:00
7:15 AM,44.6,42.8,93,30.15,10.0,NNW,4.6,-,N/A,,Clear,330,2012-11-20 12:15:00
7:35 AM,44.6,44.6,100,30.15,10.0,NNW,3.5,-,N/A,,Clear,340,2012-11-20 12:35:00
7:55 AM,46.4,44.6,93,30.15,10.0,North,4.6,-,N/A,,Clear,350,2012-11-20 12:55:00
8:15 AM,48.2,44.6,87,30.15,10.0,NNE,5.8,-,N/A,,Clear,20,2012-11-20 13:15:00
8:35 AM,50.0,44.6,82,30.16,10.0,NNE,4.6,-,N/A,,Clear,20,2012-11-20 13:35:00
8:55 AM,50.0,44.6,82,30.16,10.0,North,4.6,-,N/A,,Clear,10,2012-11-20 13:55:00
9:15 AM,51.8,44.6,76,30.17,10.0,NNE,6.9,-,N/A,,Scattered Clouds,30,2012-11-20 14:15:00
9:35 AM,51.8,44.6,76,30.16,10.0,NE,6.9,-,N/A,,Scattered Clouds,40,2012-11-20 14:35:00
9:55 AM,51.8,44.6,76,30.16,10.0,NNE,5.8,-,N/A,,Clear,20,2012-11-20 14:55:00
10:15 AM,53.6,44.6,72,30.16,10.0,North,4.6,-,N/A,,Clear,350,2012-11-20 15:15:00
10:35 AM,53.6,44.6,72,30.16,10.0,North,5.8,-,N/A,,Clear,10,2012-11-20 15:35:00
11:15 AM,55.4,44.6,67,30.14,10.0,North,5.8,-,N/A,,Clear,360,2012-11-20 16:15:00
11:35 AM,57.2,46.4,67,30.13,10.0,North,5.8,-,N/A,,Clear,360,2012-11-20 16:35:00
11:55 AM,59.0,46.4,63,30.11,10.0,NNE,4.6,-,N/A,,Clear,30,2012-11-20 16:55:00
12:15 PM,60.8,46.4,59,30.11,10.0,NNE,5.8,-,N/A,,Clear,20,2012-11-20 17:15:00
12:35 PM,62.6,46.4,55,30.09,10.0,NNW,6.9,-,N/A,,Clear,340,2012-11-20 17:35:00
12:55 PM,62.6,46.4,55,30.08,10.0,NNE,6.9,-,N/A,,Clear,20,2012-11-20 17:55:00
1:15 PM,62.6,46.4,55,30.08,10.0,North,6.9,-,N/A,,Clear,360,2012-11-20 18:15:00
1:35 PM,64.4,44.6,49,30.07,10.0,North,8.1,-,N/A,,Clear,360,2012-11-20 18:35:00
1:55 PM,64.4,44.6,49,30.06,10.0,NNW,10.4,-,N/A,,Clear,340,2012-11-20 18:55:00
2:15 PM,64.4,44.6,49,30.06,10.0,North,4.6,-,N/A,,Clear,10,2012-11-20 19:15:00
2:35 PM,64.4,46.4,52,30.05,10.0,NNW,6.9,-,N/A,,Clear,330,2012-11-20 19:35:00
2:55 PM,62.6,46.4,55,30.06,10.0,North,6.9,-,N/A,,Clear,360,2012-11-20 19:55:00
3:15 PM,64.4,46.4,52,30.05,10.0,NNE,5.8,-,N/A,,Clear,20,2012-11-20 20:15:00
3:55 PM,64.4,46.4,52,30.05,10.0,North,4.6,-,N/A,,Clear,350,2012-11-20 20:55:00
4:15 PM,62.6,46.4,55,30.05,10.0,Calm,Calm,-,N/A,,Clear,0,2012-11-20 21:15:00
4:55 PM,60.8,48.2,63,30.05,10.0,Calm,Calm,-,N/A,,Clear,0,2012-11-20 21:55:00
5:15 PM,59.0,50.0,72,30.05,10.0,NNE,3.5,-,N/A,,Clear,20,2012-11-20 22:15:00
5:35 PM,59.0,50.0,72,30.05,10.0,Calm,Calm,-,N/A,,Clear,0,2012-11-20 22:35:00
5:55 PM,55.4,50.0,82,30.06,10.0,Calm,Calm,-,N/A,,Clear,0,2012-11-20 22:55:00
6:15 PM,53.6,50.0,88,30.06,10.0,Calm,Calm,-,N/A,,Clear,0,2012-11-20 23:15:00
6:35 PM,53.6,50.0,88,30.07,10.0,Calm,Calm,-,N/A,,Clear,0,2012-11-20 23:35:00
6:55 PM,51.8,48.2,88,30.08,10.0,Calm,Calm,-,N/A,,Clear,0,2012-11-20 23:55:00
7:15 PM,51.8,50.0,94,30.08,10.0,Calm,Calm,-,N/A,,Clear,0,2012-11-21 00:15:00
7:35 PM,51.8,50.0,94,30.08,10.0,North,3.5,-,N/A,,Clear,10,2012-11-21 00:35:00
7:55 PM,50.0,46.4,87,30.08,10.0,Calm,Calm,-,N/A,,Clear,0,2012-11-21 00:55:00
8:15 PM,50.0,50.0,100,30.08,10.0,Calm,Calm,-,N/A,,Clear,0,2012-11-21 01:15:00
8:35 PM,48.2,46.4,93,30.08,10.0,Calm,Calm,-,N/A,,Clear,0,2012-11-21 01:35:00
8:55 PM,46.4,46.4,100,30.09,10.0,Calm,Calm,-,N/A,,Clear,0,2012-11-21 01:55:00
9:15 PM,48.2,46.4,93,30.08,10.0,Calm,Calm,-,N/A,,Clear,0,2012-11-21 02:15:00
9:35 PM,46.4,46.4,100,30.09,10.0,Calm,Calm,-,N/A,,Clear,0,2012-11-21 02:35:00
9:55 PM,46.4,46.4,100,30.09,10.0,Calm,Calm,-,N/A,,Clear,0,2012-11-21 02:55:00
10:15 PM,44.6,44.6,100,30.09,10.0,Calm,Calm,-,N/A,,Clear,0,2012-11-21 03:15:00
10:35 PM,44.6,44.6,100,30.09,7.0,Calm,Calm,-,N/A,,Clear,0,2012-11-21 03:35:00
10:55 PM,44.6,44.6,100,30.09,10.0,Calm,Calm,-,N/A,,Clear,0,2012-11-21 03:55:00
11:15 PM,42.8,42.8,100,30.09,7.0,Calm,Calm,-,N/A,,Clear,0,2012-11-21 04:15:00
11:35 PM,42.8,42.8,100,30.09,7.0,Calm,Calm,-,N/A,,Clear,0,2012-11-21 04:35:00
11:55 PM,42.8,42.8,100,30.09,5.0,Calm,Calm,-,N/A,,Clear,0,2012-11-21 04:55:00